Terminal Aerodrome Forecast
Issued by NWS Jackson, MS

Home | Current Version | Previous Version | Text Only | Print | Product List | Glossary On
Versions: 1 2 3 4 5 6 7 8 9 10 11 12 13 14 15 16
000
FTUS44 KJAN 180000 CCA
TAFHBG
TAF COR
KHBG 180012Z 1800/1824 VRB04KT 4SM HZ BKN070 OVC120
     FM180200 09004KT P6SM OVC050
     FM180500 09005KT P6SM VCSH OVC025
     FM180700 08004KT P6SM VCSH OVC015
     FM180900 06005KT 6SM SHRA OVC009
     FM181500 03008KT P6SM OVC015
     FM181800 02009KT P6SM BKN035=

USA.gov is the U.S. government's official web portal to all federal, state and local government web resources and services.